Rosa Maersk — OVST2 — position and weather

sailwx.info

Track history (hours):
 
Tides and Currents Weather Stations Pressure Air Temp Water Temp Dewpoint Dewpoint Depression Visibility Wind Speed Wind Dir Waves Ship Positions

Rosa Maersk

Last reported at 2017-Mar-13 23:19 UTC. Time now 2017-Mar-25 13:35 UTC.
Position N 36°27' E 014°41'.
Warning: this ship's position is 11 days out of date.

Length 172 m; draft 7 m.

Type: Ship. MMSI: 220288000.

Date/timePositionNaut miles runAvg speedWind from/ knotsBaromVisibWave heightAir tempDewpointWater temp
2017-Mar-13 23:19N 36°27' E 014°41'5 7.2
2017-Mar-13 22:33N 36°28' E 014°34'7 7.0
2017-Mar-13 21:33N 36°31' E 014°26'7 7.0
2017-Mar-13 20:33N 36°33' E 014°18'7 6.9
2017-Mar-13 19:33N 36°36' E 014°10'7 6.9
2017-Mar-13 18:29N 36°39' E 014°01'6 7.0
2017-Mar-13 17:33N 36°41' E 013°54'9 7.5
2017-Mar-13 16:18N 36°45' E 013°43'14 7.9
2017-Mar-13 14:33N 36°50' E 013°27'10 7.9
2017-Mar-13 13:20N 36°54' E 013°16'6 8.0
2017-Mar-13 12:33N 36°56' E 013°09'1010.0
2017-Mar-13 11:31N 36°60' E 012°57'3711.8
2017-Mar-13 08:22N 37°14' E 012°14'9 8.2
2017-Mar-13 07:19N 37°21' E 012°07'8 7.3
2017-Mar-13 06:17N 37°28' E 012°05'348 9.2
2017-Mar-11 16:17N 42°57' E 009°36'10 8.9
2017-Mar-11 15:07N 43°07' E 009°32'5 8.6
2017-Mar-11 14:34N 43°11' E 009°29'8 8.3
2017-Mar-11 13:33N 43°19' E 009°24'10 9.8
2017-Mar-11 12:33N 43°27' E 009°18'1111.4
2017-Mar-11 11:34N 43°37' E 009°10'1212.2
2017-Mar-11 10:33N 43°48' E 009°03'1212.2
2017-Mar-11 09:33N 43°60' E 008°57'1110.6
2017-Mar-11 08:33N 44°10' E 008°51'9 8.6
2017-Mar-11 07:33N 44°17' E 008°47'8 7.6
2017-Mar-11 06:34N 44°25' E 008°49'1 1.0
2017-Mar-11 05:29N 44°25' E 008°50'0 0.0
2017-Mar-11 04:29N 44°25' E 008°50'0 0.0
2017-Mar-11 03:29N 44°25' E 008°50'0 0.0
2017-Mar-11 02:29N 44°25' E 008°50'0 0.0
2017-Mar-11 01:32N 44°25' E 008°50'0 0.0
2017-Mar-11 00:32N 44°25' E 008°50'0 0.0
2017-Mar-10 23:32N 44°25' E 008°50'0 0.0
2017-Mar-10 22:32N 44°25' E 008°50'0 0.0
2017-Mar-10 21:32N 44°25' E 008°50'0 0.0
2017-Mar-10 20:32N 44°25' E 008°50'0 0.0
2017-Mar-10 17:20N 44°25' E 008°50'0 0.0
2017-Mar-10 15:23N 44°25' E 008°50'0 0.0
2017-Mar-10 14:20N 44°25' E 008°50'0 0.0
2017-Mar-10 13:20N 44°25' E 008°50'0 0.0
2017-Mar-10 12:19N 44°25' E 008°50'0 0.0
2017-Mar-10 11:25N 44°25' E 008°50'0 0.0
2017-Mar-10 10:25N 44°25' E 008°50'0 0.0
2017-Mar-10 09:25N 44°25' E 008°50'0 0.0
2017-Mar-10 08:25N 44°25' E 008°50'0 0.0
2017-Mar-10 07:22N 44°25' E 008°50'0 0.0
2017-Mar-10 06:25N 44°25' E 008°50'0 0.0
2017-Mar-10 05:28N 44°25' E 008°50'0 0.0
2017-Mar-10 04:28N 44°25' E 008°50'0 0.0
2017-Mar-10 03:28N 44°25' E 008°50'0 0.0
2017-Mar-10 02:31N 44°25' E 008°50'0 0.0
2017-Mar-10 01:31N 44°25' E 008°50'0 0.0
2017-Mar-10 00:31N 44°25' E 008°50'0 0.0
2017-Mar-09 23:31N 44°25' E 008°50'0 0.0
2017-Mar-09 22:31N 44°25' E 008°50'0 0.0
2017-Mar-09 19:31N 44°25' E 008°50'0 0.0
2017-Mar-09 18:04N 44°25' E 008°50'0 0.0
2017-Mar-09 17:19N 44°25' E 008°50'0 0.0
2017-Mar-09 16:31N 44°25' E 008°50'0 0.0
2017-Mar-09 15:31N 44°25' E 008°50'0 0.0
2017-Mar-09 14:31N 44°25' E 008°50'0 0.0
2017-Mar-09 13:22N 44°25' E 008°50'0 0.0
2017-Mar-09 12:22N 44°25' E 008°50'0 0.0
2017-Mar-09 11:22N 44°25' E 008°50'0 0.0
2017-Mar-09 10:22N 44°25' E 008°50'1 0.3
2017-Mar-09 06:34N 44°25' E 008°48'5 4.9
2017-Mar-09 05:33N 44°20' E 008°48'5 5.5
2017-Mar-09 04:33N 44°15' E 008°51'1 1.0
2017-Mar-09 03:19N 44°14' E 008°52'0 0.3
2017-Mar-09 02:31N 44°14' E 008°53'0 0.2
2017-Mar-09 01:33N 44°14' E 008°53'1 0.4
2017-Mar-09 00:18N 44°15' E 008°53'0 0.3
2017-Mar-08 23:28N 44°15' E 008°53'0 0.2
2017-Mar-08 22:31N 44°15' E 008°53'0 0.1
2017-Mar-08 19:32N 44°15' E 008°53'1 0.7
2017-Mar-08 18:13N 44°14' E 008°52'1 0.8
2017-Mar-08 17:20N 44°14' E 008°51'2 0.9
2017-Mar-08 15:33N 44°14' E 008°49'1 0.7
2017-Mar-08 13:26N 44°14' E 008°47'1 0.5
2017-Mar-08 12:11N 44°14' E 008°46'0 0.2
2017-Mar-08 11:17N 44°14' E 008°46'1 0.8
2017-Mar-08 10:25N 44°15' E 008°46'1 0.8
2017-Mar-08 09:33N 44°14' E 008°46'4 4.0
2017-Mar-08 08:34N 44°18' E 008°46'5 4.6
2017-Mar-08 07:33N 44°23' E 008°47'4 3.9
2017-Mar-08 06:34N 44°19' E 008°47'6 6.2
2017-Mar-08 05:34N 44°14' E 008°53'6 6.2
2017-Mar-08 04:34N 44°08' E 008°53'5 5.4
2017-Mar-08 03:34N 44°03' E 008°52'1 1.1
2017-Mar-08 02:34N 44°02' E 008°51'1 0.7
2017-Mar-08 01:33N 44°02' E 008°51'1 0.7
2017-Mar-08 00:34N 44°03' E 008°51'1 0.8
2017-Mar-07 23:34N 44°04' E 008°51'1 0.8
2017-Mar-07 22:33N 44°05' E 008°51'1 1.0
2017-Mar-07 21:21N 44°06' E 008°51'1 1.1
2017-Mar-07 20:33N 44°07' E 008°51'1 1.0
2017-Mar-07 19:34N 44°08' E 008°51'1 0.9
2017-Mar-07 18:28N 44°09' E 008°51'1 0.9
2017-Mar-07 17:20N 44°10' E 008°51'1 0.8
2017-Mar-07 16:33N 44°10' E 008°50'1 0.8
2017-Mar-07 15:33N 44°11' E 008°50'1 0.5
2017-Mar-07 14:33N 44°11' E 008°50'6 5.6
2017-Mar-07 13:33N 44°07' E 008°55'7 6.8
2017-Mar-07 12:33N 44°01' E 009°00'1 1.1
2017-Mar-07 11:34N 44°00' E 009°01'1 0.8
2017-Mar-07 10:34N 44°01' E 009°00'1 0.8
2017-Mar-07 09:33N 44°02' E 008°59'1 0.9
2017-Mar-07 08:33N 44°02' E 008°58'1 0.8
2017-Mar-07 07:33N 44°03' E 008°57'1 0.7
2017-Mar-07 06:33N 44°03' E 008°57'1 0.5
2017-Mar-07 05:33N 44°03' E 008°57'6 6.5
2017-Mar-07 04:34N 44°09' E 008°54'5 4.6
2017-Mar-07 03:34N 44°05' E 008°58'6 6.2
2017-Mar-07 02:34N 44°00' E 009°02'6 5.6
2017-Mar-07 01:33N 43°56' E 009°07'3 3.1
2017-Mar-07 00:33N 43°57' E 009°03'7 6.6
2017-Mar-06 23:34N 44°03' E 008°58'7 6.5
2017-Mar-06 22:33N 44°08' E 008°53'4 4.0
2017-Mar-06 21:34N 44°05' E 008°56'6 5.9
2017-Mar-06 20:34N 43°60' E 008°60'5 5.1
2017-Mar-06 19:33N 43°55' E 009°03'3 3.1
2017-Mar-06 18:33N 43°52' E 009°05'5 5.0
2017-Mar-06 17:33N 43°57' E 009°02'5 4.5
2017-Mar-06 16:34N 44°01' E 008°59'4 3.7
2017-Mar-06 15:29N 44°04' E 008°57'4 4.2
2017-Mar-06 14:34N 44°08' E 008°54'4 4.0
2017-Mar-06 13:34N 44°11' E 008°50'5 4.5
2017-Mar-06 12:33N 44°15' E 008°48'7 6.8
2017-Mar-06 11:34N 44°12' E 008°56'1110.8
2017-Mar-06 10:33N 44°02' E 009°04'1110.5
2017-Mar-06 09:32N 43°53' E 009°11'1010.2
2017-Mar-06 08:34N 43°44' E 009°17'1010.5
2017-Mar-06 07:33N 43°34' E 009°22'10 9.8
2017-Mar-06 06:34N 43°25' E 009°27'9 9.2
2017-Mar-06 05:34N 43°16' E 009°31'8 8.0
2017-Mar-06 04:34N 43°09' E 009°35'7 7.1
2017-Mar-06 03:34N 43°02' E 009°39'2410.2
2017-Mar-06 01:14N 42°39' E 009°48'39411.3
2017-Mar-04 14:26N 36°41' E 013°23'3512.1
2017-Mar-04 11:33N 36°23' E 013°60'1212.0
2017-Mar-04 10:33N 36°18' E 014°13'1212.3
2017-Mar-04 09:33N 36°11' E 014°25'1312.2
2017-Mar-04 08:30N 36°01' E 014°36'2 2.1
2017-Mar-04 07:19N 35°59' E 014°36'5 6.1
2017-Mar-04 06:33N 36°03' E 014°39'9 8.6
2017-Mar-04 05:28N 36°10' E 014°46'  
Track history (hours):
 
Tides and Currents Weather Stations Pressure Air Temp Water Temp Dewpoint Dewpoint Depression Visibility Wind Speed Wind Dir Waves Ship Positions

Rosa Maersk

Last reported at 2017-Mar-13 23:19 UTC. Time now 2017-Mar-25 13:35 UTC.
Position N 36°27' E 014°41'.
Warning: this ship's position is 11 days out of date.

Length 172 m; draft 7 m.

Type: Ship. MMSI: 220288000.

Date/timePositionNaut miles runAvg speedWind from/ knotsBaromVisibWave heightAir tempDewpointWater temp
2017-Mar-13 23:19N 36°27' E 014°41'5 7.2
2017-Mar-13 22:33N 36°28' E 014°34'7 7.0
2017-Mar-13 21:33N 36°31' E 014°26'7 7.0
2017-Mar-13 20:33N 36°33' E 014°18'7 6.9
2017-Mar-13 19:33N 36°36' E 014°10'7 6.9
2017-Mar-13 18:29N 36°39' E 014°01'6 7.0
2017-Mar-13 17:33N 36°41' E 013°54'9 7.5
2017-Mar-13 16:18N 36°45' E 013°43'14 7.9
2017-Mar-13 14:33N 36°50' E 013°27'10 7.9
2017-Mar-13 13:20N 36°54' E 013°16'6 8.0
2017-Mar-13 12:33N 36°56' E 013°09'1010.0
2017-Mar-13 11:31N 36°60' E 012°57'3711.8
2017-Mar-13 08:22N 37°14' E 012°14'9 8.2
2017-Mar-13 07:19N 37°21' E 012°07'8 7.3
2017-Mar-13 06:17N 37°28' E 012°05'348 9.2
2017-Mar-11 16:17N 42°57' E 009°36'10 8.9
2017-Mar-11 15:07N 43°07' E 009°32'5 8.6
2017-Mar-11 14:34N 43°11' E 009°29'8 8.3
2017-Mar-11 13:33N 43°19' E 009°24'10 9.8
2017-Mar-11 12:33N 43°27' E 009°18'1111.4
2017-Mar-11 11:34N 43°37' E 009°10'1212.2
2017-Mar-11 10:33N 43°48' E 009°03'1212.2
2017-Mar-11 09:33N 43°60' E 008°57'1110.6
2017-Mar-11 08:33N 44°10' E 008°51'9 8.6
2017-Mar-11 07:33N 44°17' E 008°47'8 7.6
2017-Mar-11 06:34N 44°25' E 008°49'1 1.0
2017-Mar-11 05:29N 44°25' E 008°50'0 0.0
2017-Mar-11 04:29N 44°25' E 008°50'0 0.0
2017-Mar-11 03:29N 44°25' E 008°50'0 0.0
2017-Mar-11 02:29N 44°25' E 008°50'0 0.0
2017-Mar-11 01:32N 44°25' E 008°50'0 0.0
2017-Mar-11 00:32N 44°25' E 008°50'0 0.0
2017-Mar-10 23:32N 44°25' E 008°50'0 0.0
2017-Mar-10 22:32N 44°25' E 008°50'0 0.0
2017-Mar-10 21:32N 44°25' E 008°50'0 0.0
2017-Mar-10 20:32N 44°25' E 008°50'0 0.0
2017-Mar-10 17:20N 44°25' E 008°50'0 0.0
2017-Mar-10 15:23N 44°25' E 008°50'0 0.0
2017-Mar-10 14:20N 44°25' E 008°50'0 0.0
2017-Mar-10 13:20N 44°25' E 008°50'0 0.0
2017-Mar-10 12:19N 44°25' E 008°50'0 0.0
2017-Mar-10 11:25N 44°25' E 008°50'0 0.0
2017-Mar-10 10:25N 44°25' E 008°50'0 0.0
2017-Mar-10 09:25N 44°25' E 008°50'0 0.0
2017-Mar-10 08:25N 44°25' E 008°50'0 0.0
2017-Mar-10 07:22N 44°25' E 008°50'0 0.0
2017-Mar-10 06:25N 44°25' E 008°50'0 0.0
2017-Mar-10 05:28N 44°25' E 008°50'0 0.0
2017-Mar-10 04:28N 44°25' E 008°50'0 0.0
2017-Mar-10 03:28N 44°25' E 008°50'0 0.0
2017-Mar-10 02:31N 44°25' E 008°50'0 0.0
2017-Mar-10 01:31N 44°25' E 008°50'0 0.0
2017-Mar-10 00:31N 44°25' E 008°50'0 0.0
2017-Mar-09 23:31N 44°25' E 008°50'0 0.0
2017-Mar-09 22:31N 44°25' E 008°50'0 0.0
2017-Mar-09 19:31N 44°25' E 008°50'0 0.0
2017-Mar-09 18:04N 44°25' E 008°50'0 0.0
2017-Mar-09 17:19N 44°25' E 008°50'0 0.0
2017-Mar-09 16:31N 44°25' E 008°50'0 0.0
2017-Mar-09 15:31N 44°25' E 008°50'0 0.0
2017-Mar-09 14:31N 44°25' E 008°50'0 0.0
2017-Mar-09 13:22N 44°25' E 008°50'0 0.0
2017-Mar-09 12:22N 44°25' E 008°50'0 0.0
2017-Mar-09 11:22N 44°25' E 008°50'0 0.0
2017-Mar-09 10:22N 44°25' E 008°50'1 0.3
2017-Mar-09 06:34N 44°25' E 008°48'5 4.9
2017-Mar-09 05:33N 44°20' E 008°48'5 5.5
2017-Mar-09 04:33N 44°15' E 008°51'1 1.0
2017-Mar-09 03:19N 44°14' E 008°52'0 0.3
2017-Mar-09 02:31N 44°14' E 008°53'0 0.2
2017-Mar-09 01:33N 44°14' E 008°53'1 0.4
2017-Mar-09 00:18N 44°15' E 008°53'0 0.3
2017-Mar-08 23:28N 44°15' E 008°53'0 0.2
2017-Mar-08 22:31N 44°15' E 008°53'0 0.1
2017-Mar-08 19:32N 44°15' E 008°53'1 0.7
2017-Mar-08 18:13N 44°14' E 008°52'1 0.8
2017-Mar-08 17:20N 44°14' E 008°51'2 0.9
2017-Mar-08 15:33N 44°14' E 008°49'1 0.7
2017-Mar-08 13:26N 44°14' E 008°47'1 0.5
2017-Mar-08 12:11N 44°14' E 008°46'0 0.2
2017-Mar-08 11:17N 44°14' E 008°46'1 0.8
2017-Mar-08 10:25N 44°15' E 008°46'1 0.8
2017-Mar-08 09:33N 44°14' E 008°46'4 4.0
2017-Mar-08 08:34N 44°18' E 008°46'5 4.6
2017-Mar-08 07:33N 44°23' E 008°47'4 3.9
2017-Mar-08 06:34N 44°19' E 008°47'6 6.2
2017-Mar-08 05:34N 44°14' E 008°53'6 6.2
2017-Mar-08 04:34N 44°08' E 008°53'5 5.4
2017-Mar-08 03:34N 44°03' E 008°52'1 1.1
2017-Mar-08 02:34N 44°02' E 008°51'1 0.7
2017-Mar-08 01:33N 44°02' E 008°51'1 0.7
2017-Mar-08 00:34N 44°03' E 008°51'1 0.8
2017-Mar-07 23:34N 44°04' E 008°51'1 0.8
2017-Mar-07 22:33N 44°05' E 008°51'1 1.0
2017-Mar-07 21:21N 44°06' E 008°51'1 1.1
2017-Mar-07 20:33N 44°07' E 008°51'1 1.0
2017-Mar-07 19:34N 44°08' E 008°51'1 0.9
2017-Mar-07 18:28N 44°09' E 008°51'1 0.9
2017-Mar-07 17:20N 44°10' E 008°51'1 0.8
2017-Mar-07 16:33N 44°10' E 008°50'1 0.8
2017-Mar-07 15:33N 44°11' E 008°50'1 0.5
2017-Mar-07 14:33N 44°11' E 008°50'6 5.6
2017-Mar-07 13:33N 44°07' E 008°55'7 6.8
2017-Mar-07 12:33N 44°01' E 009°00'1 1.1
2017-Mar-07 11:34N 44°00' E 009°01'1 0.8
2017-Mar-07 10:34N 44°01' E 009°00'1 0.8
2017-Mar-07 09:33N 44°02' E 008°59'1 0.9
2017-Mar-07 08:33N 44°02' E 008°58'1 0.8
2017-Mar-07 07:33N 44°03' E 008°57'1 0.7
2017-Mar-07 06:33N 44°03' E 008°57'1 0.5
2017-Mar-07 05:33N 44°03' E 008°57'6 6.5
2017-Mar-07 04:34N 44°09' E 008°54'5 4.6
2017-Mar-07 03:34N 44°05' E 008°58'6 6.2
2017-Mar-07 02:34N 44°00' E 009°02'6 5.6
2017-Mar-07 01:33N 43°56' E 009°07'3 3.1
2017-Mar-07 00:33N 43°57' E 009°03'7 6.6
2017-Mar-06 23:34N 44°03' E 008°58'7 6.5
2017-Mar-06 22:33N 44°08' E 008°53'4 4.0
2017-Mar-06 21:34N 44°05' E 008°56'6 5.9
2017-Mar-06 20:34N 43°60' E 008°60'5 5.1
2017-Mar-06 19:33N 43°55' E 009°03'3 3.1
2017-Mar-06 18:33N 43°52' E 009°05'5 5.0
2017-Mar-06 17:33N 43°57' E 009°02'5 4.5
2017-Mar-06 16:34N 44°01' E 008°59'4 3.7
2017-Mar-06 15:29N 44°04' E 008°57'4 4.2
2017-Mar-06 14:34N 44°08' E 008°54'4 4.0
2017-Mar-06 13:34N 44°11' E 008°50'5 4.5
2017-Mar-06 12:33N 44°15' E 008°48'7 6.8
2017-Mar-06 11:34N 44°12' E 008°56'1110.8
2017-Mar-06 10:33N 44°02' E 009°04'1110.5
2017-Mar-06 09:32N 43°53' E 009°11'1010.2
2017-Mar-06 08:34N 43°44' E 009°17'1010.5
2017-Mar-06 07:33N 43°34' E 009°22'10 9.8
2017-Mar-06 06:34N 43°25' E 009°27'9 9.2
2017-Mar-06 05:34N 43°16' E 009°31'8 8.0
2017-Mar-06 04:34N 43°09' E 009°35'7 7.1
2017-Mar-06 03:34N 43°02' E 009°39'2410.2
2017-Mar-06 01:14N 42°39' E 009°48'39411.3
2017-Mar-04 14:26N 36°41' E 013°23'3512.1
2017-Mar-04 11:33N 36°23' E 013°60'1212.0
2017-Mar-04 10:33N 36°18' E 014°13'1212.3
2017-Mar-04 09:33N 36°11' E 014°25'1312.2
2017-Mar-04 08:30N 36°01' E 014°36'2 2.1
2017-Mar-04 07:19N 35°59' E 014°36'5 6.1
2017-Mar-04 06:33N 36°03' E 014°39'9 8.6
2017-Mar-04 05:28N 36°10' E 014°46'  

Dump ship's entire track history